sensor_id;sensor_type;location;lat;lon;timestamp;P1;durP1;ratioP1;P2;durP2;ratioP2
17650;SDS011;26663;59.302;18.082;2023-03-19T00:02:46;55.13;;;16.90;;
17650;SDS011;26663;59.302;18.082;2023-03-19T00:05:53;50.07;;;17.17;;
17650;SDS011;26663;59.302;18.082;2023-03-19T00:08:58;54.43;;;17.20;;
17650;SDS011;26663;59.302;18.082;2023-03-19T00:12:04;47.27;;;16.47;;
17650;SDS011;26663;59.302;18.082;2023-03-19T00:15:12;50.13;;;16.53;;
17650;SDS011;26663;59.302;18.082;2023-03-19T00:18:18;38.60;;;15.47;;
17650;SDS011;26663;59.302;18.082;2023-03-19T00:21:23;42.67;;;16.10;;
17650;SDS011;26663;59.302;18.082;2023-03-19T00:24:31;44.63;;;16.17;;
17650;SDS011;26663;59.302;18.082;2023-03-19T00:27:37;41.20;;;15.70;;
17650;SDS011;26663;59.302;18.082;2023-03-19T00:30:43;39.37;;;15.17;;
17650;SDS011;26663;59.302;18.082;2023-03-19T00:33:49;41.73;;;15.83;;
17650;SDS011;26663;59.302;18.082;2023-03-19T00:36:55;42.00;;;15.03;;
17650;SDS011;26663;59.302;18.082;2023-03-19T00:40:00;36.60;;;14.33;;
17650;SDS011;26663;59.302;18.082;2023-03-19T00:43:08;41.73;;;14.80;;
17650;SDS011;26663;59.302;18.082;2023-03-19T00:46:15;41.53;;;15.73;;
17650;SDS011;26663;59.302;18.082;2023-03-19T00:49:21;40.87;;;15.10;;
17650;SDS011;26663;59.302;18.082;2023-03-19T00:52:26;40.73;;;16.03;;
17650;SDS011;26663;59.302;18.082;2023-03-19T00:55:31;38.63;;;14.90;;
17650;SDS011;26663;59.302;18.082;2023-03-19T00:58:36;38.60;;;14.40;;
17650;SDS011;26663;59.302;18.082;2023-03-19T01:01:44;50.13;;;16.13;;
17650;SDS011;26663;59.302;18.082;2023-03-19T01:04:49;40.80;;;14.70;;
17650;SDS011;26663;59.302;18.082;2023-03-19T01:07:54;40.77;;;14.50;;
17650;SDS011;26663;59.302;18.082;2023-03-19T01:11:03;35.77;;;14.20;;
17650;SDS011;26663;59.302;18.082;2023-03-19T01:14:11;40.53;;;14.20;;
17650;SDS011;26663;59.302;18.082;2023-03-19T01:17:18;39.20;;;13.33;;
17650;SDS011;26663;59.302;18.082;2023-03-19T01:20:23;35.40;;;13.47;;
17650;SDS011;26663;59.302;18.082;2023-03-19T01:23:28;40.20;;;13.33;;
17650;SDS011;26663;59.302;18.082;2023-03-19T01:26:34;41.73;;;15.40;;
17650;SDS011;26663;59.302;18.082;2023-03-19T01:30:06;35.60;;;13.97;;
17650;SDS011;26663;59.302;18.082;2023-03-19T01:33:52;42.83;;;14.43;;
17650;SDS011;26663;59.302;18.082;2023-03-19T01:37:10;48.30;;;14.63;;
17650;SDS011;26663;59.302;18.082;2023-03-19T01:40:17;50.33;;;13.67;;
17650;SDS011;26663;59.302;18.082;2023-03-19T01:43:23;39.27;;;13.03;;
17650;SDS011;26663;59.302;18.082;2023-03-19T01:46:32;44.30;;;14.70;;
17650;SDS011;26663;59.302;18.082;2023-03-19T01:50:00;39.07;;;13.20;;
17650;SDS011;26663;59.302;18.082;2023-03-19T01:53:06;40.23;;;13.73;;
17650;SDS011;26663;59.302;18.082;2023-03-19T01:56:23;43.37;;;14.53;;
17650;SDS011;26663;59.302;18.082;2023-03-19T01:59:52;42.17;;;14.17;;
17650;SDS011;26663;59.302;18.082;2023-03-19T02:03:16;38.47;;;13.83;;
17650;SDS011;26663;59.302;18.082;2023-03-19T02:06:29;35.47;;;13.53;;
17650;SDS011;26663;59.302;18.082;2023-03-19T02:09:36;36.20;;;13.03;;
17650;SDS011;26663;59.302;18.082;2023-03-19T02:12:43;32.10;;;12.67;;
17650;SDS011;26663;59.302;18.082;2023-03-19T02:15:48;35.17;;;13.03;;
17650;SDS011;26663;59.302;18.082;2023-03-19T02:18:54;37.63;;;13.77;;
17650;SDS011;26663;59.302;18.082;2023-03-19T02:22:02;39.97;;;13.80;;
17650;SDS011;26663;59.302;18.082;2023-03-19T02:25:09;33.77;;;12.70;;
17650;SDS011;26663;59.302;18.082;2023-03-19T02:28:19;31.30;;;11.43;;
17650;SDS011;26663;59.302;18.082;2023-03-19T02:31:27;25.60;;;11.60;;
17650;SDS011;26663;59.302;18.082;2023-03-19T02:34:37;32.47;;;11.73;;
17650;SDS011;26663;59.302;18.082;2023-03-19T02:37:43;32.77;;;12.60;;
17650;SDS011;26663;59.302;18.082;2023-03-19T02:40:49;30.83;;;11.77;;
17650;SDS011;26663;59.302;18.082;2023-03-19T02:43:58;31.67;;;12.40;;
17650;SDS011;26663;59.302;18.082;2023-03-19T02:47:05;26.87;;;11.73;;
17650;SDS011;26663;59.302;18.082;2023-03-19T02:50:11;28.37;;;11.63;;
17650;SDS011;26663;59.302;18.082;2023-03-19T02:53:16;25.83;;;11.37;;
17650;SDS011;26663;59.302;18.082;2023-03-19T02:56:22;30.10;;;12.20;;
17650;SDS011;26663;59.302;18.082;2023-03-19T02:59:29;25.00;;;10.97;;
17650;SDS011;26663;59.302;18.082;2023-03-19T03:02:34;23.43;;;10.90;;
17650;SDS011;26663;59.302;18.082;2023-03-19T03:05:40;29.37;;;12.00;;
17650;SDS011;26663;59.302;18.082;2023-03-19T03:08:45;25.97;;;11.73;;
17650;SDS011;26663;59.302;18.082;2023-03-19T03:11:50;23.70;;;11.07;;
17650;SDS011;26663;59.302;18.082;2023-03-19T03:14:57;32.90;;;12.40;;
17650;SDS011;26663;59.302;18.082;2023-03-19T03:18:02;31.40;;;12.13;;
17650;SDS011;26663;59.302;18.082;2023-03-19T03:21:08;23.90;;;12.07;;
17650;SDS011;26663;59.302;18.082;2023-03-19T03:24:13;24.77;;;12.10;;
17650;SDS011;26663;59.302;18.082;2023-03-19T03:27:18;27.57;;;11.53;;
17650;SDS011;26663;59.302;18.082;2023-03-19T03:30:25;31.57;;;12.10;;
17650;SDS011;26663;59.302;18.082;2023-03-19T03:33:30;30.57;;;12.40;;
17650;SDS011;26663;59.302;18.082;2023-03-19T03:36:35;30.10;;;12.03;;
17650;SDS011;26663;59.302;18.082;2023-03-19T03:39:41;30.63;;;12.13;;
17650;SDS011;26663;59.302;18.082;2023-03-19T03:42:46;28.13;;;12.47;;
17650;SDS011;26663;59.302;18.082;2023-03-19T03:45:53;30.90;;;11.93;;
17650;SDS011;26663;59.302;18.082;2023-03-19T03:48:59;30.43;;;12.33;;
17650;SDS011;26663;59.302;18.082;2023-03-19T03:52:04;31.03;;;12.93;;
17650;SDS011;26663;59.302;18.082;2023-03-19T03:55:10;27.37;;;11.73;;
17650;SDS011;26663;59.302;18.082;2023-03-19T03:58:15;30.37;;;12.40;;
17650;SDS011;26663;59.302;18.082;2023-03-19T04:01:22;28.90;;;11.97;;
17650;SDS011;26663;59.302;18.082;2023-03-19T04:04:30;31.17;;;12.23;;
17650;SDS011;26663;59.302;18.082;2023-03-19T04:07:35;29.10;;;11.93;;
17650;SDS011;26663;59.302;18.082;2023-03-19T04:10:41;25.07;;;11.10;;
17650;SDS011;26663;59.302;18.082;2023-03-19T04:13:47;25.90;;;11.80;;
17650;SDS011;26663;59.302;18.082;2023-03-19T04:16:53;22.80;;;10.57;;
17650;SDS011;26663;59.302;18.082;2023-03-19T04:19:58;21.33;;;10.80;;
17650;SDS011;26663;59.302;18.082;2023-03-19T04:23:04;24.30;;;11.07;;
17650;SDS011;26663;59.302;18.082;2023-03-19T04:26:11;29.67;;;11.93;;
17650;SDS011;26663;59.302;18.082;2023-03-19T04:29:16;28.83;;;12.47;;
17650;SDS011;26663;59.302;18.082;2023-03-19T04:32:23;27.93;;;12.03;;
17650;SDS011;26663;59.302;18.082;2023-03-19T04:35:29;30.60;;;12.73;;
17650;SDS011;26663;59.302;18.082;2023-03-19T04:38:34;25.57;;;11.13;;
17650;SDS011;26663;59.302;18.082;2023-03-19T04:41:39;16.43;;;8.97;;
17650;SDS011;26663;59.302;18.082;2023-03-19T04:45:00;16.40;;;9.40;;
17650;SDS011;26663;59.302;18.082;2023-03-19T04:48:09;14.30;;;8.47;;
17650;SDS011;26663;59.302;18.082;2023-03-19T04:51:15;10.53;;;8.23;;
17650;SDS011;26663;59.302;18.082;2023-03-19T04:54:23;16.67;;;8.70;;
17650;SDS011;26663;59.302;18.082;2023-03-19T04:57:29;15.70;;;9.33;;
17650;SDS011;26663;59.302;18.082;2023-03-19T05:00:35;12.90;;;8.80;;
17650;SDS011;26663;59.302;18.082;2023-03-19T05:03:43;15.37;;;9.10;;
17650;SDS011;26663;59.302;18.082;2023-03-19T05:06:49;12.43;;;9.03;;
17650;SDS011;26663;59.302;18.082;2023-03-19T05:09:55;16.67;;;9.50;;
17650;SDS011;26663;59.302;18.082;2023-03-19T05:13:00;14.90;;;8.80;;
17650;SDS011;26663;59.302;18.082;2023-03-19T05:16:09;14.87;;;9.00;;
17650;SDS011;26663;59.302;18.082;2023-03-19T05:19:17;15.93;;;9.83;;
17650;SDS011;26663;59.302;18.082;2023-03-19T05:22:22;16.40;;;8.97;;
17650;SDS011;26663;59.302;18.082;2023-03-19T05:25:32;15.00;;;9.43;;
17650;SDS011;26663;59.302;18.082;2023-03-19T05:28:41;17.07;;;9.43;;
17650;SDS011;26663;59.302;18.082;2023-03-19T05:31:48;16.27;;;9.33;;
17650;SDS011;26663;59.302;18.082;2023-03-19T05:34:56;18.20;;;10.67;;
17650;SDS011;26663;59.302;18.082;2023-03-19T05:38:02;15.63;;;9.63;;
17650;SDS011;26663;59.302;18.082;2023-03-19T05:41:09;18.53;;;9.63;;
17650;SDS011;26663;59.302;18.082;2023-03-19T05:44:28;19.73;;;10.77;;
17650;SDS011;26663;59.302;18.082;2023-03-19T05:47:48;20.43;;;10.97;;
17650;SDS011;26663;59.302;18.082;2023-03-19T05:50:56;24.70;;;10.20;;
17650;SDS011;26663;59.302;18.082;2023-03-19T05:54:07;21.70;;;10.33;;
17650;SDS011;26663;59.302;18.082;2023-03-19T05:57:51;20.87;;;10.37;;
17650;SDS011;26663;59.302;18.082;2023-03-19T06:01:00;17.03;;;9.43;;
17650;SDS011;26663;59.302;18.082;2023-03-19T06:04:07;16.43;;;9.07;;
17650;SDS011;26663;59.302;18.082;2023-03-19T06:07:14;17.63;;;9.97;;
17650;SDS011;26663;59.302;18.082;2023-03-19T06:10:21;17.57;;;9.83;;
17650;SDS011;26663;59.302;18.082;2023-03-19T06:13:29;16.30;;;9.67;;
17650;SDS011;26663;59.302;18.082;2023-03-19T06:16:39;19.13;;;10.10;;
17650;SDS011;26663;59.302;18.082;2023-03-19T06:19:44;14.60;;;9.23;;
17650;SDS011;26663;59.302;18.082;2023-03-19T06:22:51;16.23;;;9.17;;
17650;SDS011;26663;59.302;18.082;2023-03-19T06:25:57;18.33;;;9.97;;
17650;SDS011;26663;59.302;18.082;2023-03-19T06:29:08;14.80;;;9.43;;
17650;SDS011;26663;59.302;18.082;2023-03-19T06:32:15;14.50;;;9.30;;
17650;SDS011;26663;59.302;18.082;2023-03-19T06:35:22;13.97;;;9.43;;
17650;SDS011;26663;59.302;18.082;2023-03-19T06:38:29;14.90;;;9.70;;
17650;SDS011;26663;59.302;18.082;2023-03-19T06:41:35;13.30;;;9.33;;
17650;SDS011;26663;59.302;18.082;2023-03-19T06:44:47;14.00;;;8.77;;
17650;SDS011;26663;59.302;18.082;2023-03-19T06:47:55;13.63;;;8.70;;
17650;SDS011;26663;59.302;18.082;2023-03-19T06:51:00;12.73;;;8.43;;
17650;SDS011;26663;59.302;18.082;2023-03-19T06:54:08;12.43;;;8.67;;
17650;SDS011;26663;59.302;18.082;2023-03-19T06:57:13;11.73;;;9.00;;
17650;SDS011;26663;59.302;18.082;2023-03-19T07:00:18;11.90;;;8.80;;
17650;SDS011;26663;59.302;18.082;2023-03-19T07:03:24;14.90;;;9.30;;
17650;SDS011;26663;59.302;18.082;2023-03-19T07:06:29;14.03;;;9.47;;
17650;SDS011;26663;59.302;18.082;2023-03-19T07:09:36;13.80;;;9.57;;
17650;SDS011;26663;59.302;18.082;2023-03-19T07:12:42;11.77;;;8.90;;
17650;SDS011;26663;59.302;18.082;2023-03-19T07:15:47;13.23;;;9.37;;
17650;SDS011;26663;59.302;18.082;2023-03-19T07:18:52;14.03;;;10.03;;
17650;SDS011;26663;59.302;18.082;2023-03-19T07:21:58;13.33;;;9.10;;
17650;SDS011;26663;59.302;18.082;2023-03-19T07:25:06;13.30;;;9.03;;
17650;SDS011;26663;59.302;18.082;2023-03-19T07:28:11;16.33;;;9.53;;
17650;SDS011;26663;59.302;18.082;2023-03-19T07:31:16;17.47;;;9.93;;
17650;SDS011;26663;59.302;18.082;2023-03-19T07:34:22;15.70;;;9.93;;
17650;SDS011;26663;59.302;18.082;2023-03-19T07:37:27;14.40;;;9.60;;
17650;SDS011;26663;59.302;18.082;2023-03-19T07:40:34;13.13;;;9.23;;
17650;SDS011;26663;59.302;18.082;2023-03-19T07:43:45;15.77;;;10.17;;
17650;SDS011;26663;59.302;18.082;2023-03-19T07:46:50;14.80;;;9.70;;
17650;SDS011;26663;59.302;18.082;2023-03-19T07:49:55;16.33;;;9.93;;
17650;SDS011;26663;59.302;18.082;2023-03-19T07:53:00;17.53;;;11.03;;
17650;SDS011;26663;59.302;18.082;2023-03-19T07:56:07;19.17;;;11.37;;
17650;SDS011;26663;59.302;18.082;2023-03-19T07:59:13;17.57;;;10.83;;
17650;SDS011;26663;59.302;18.082;2023-03-19T08:02:18;22.63;;;12.77;;
17650;SDS011;26663;59.302;18.082;2023-03-19T08:05:25;19.87;;;11.90;;
17650;SDS011;26663;59.302;18.082;2023-03-19T08:08:30;18.27;;;10.50;;
17650;SDS011;26663;59.302;18.082;2023-03-19T08:11:38;16.63;;;10.67;;
17650;SDS011;26663;59.302;18.082;2023-03-19T08:14:43;17.57;;;10.57;;
17650;SDS011;26663;59.302;18.082;2023-03-19T08:17:48;16.77;;;10.83;;
17650;SDS011;26663;59.302;18.082;2023-03-19T08:21:00;20.60;;;11.57;;
17650;SDS011;26663;59.302;18.082;2023-03-19T08:24:05;19.43;;;10.80;;
17650;SDS011;26663;59.302;18.082;2023-03-19T08:27:12;17.70;;;11.23;;
17650;SDS011;26663;59.302;18.082;2023-03-19T08:30:17;19.07;;;11.07;;
17650;SDS011;26663;59.302;18.082;2023-03-19T08:33:22;23.70;;;11.83;;
17650;SDS011;26663;59.302;18.082;2023-03-19T08:36:27;19.03;;;11.27;;
17650;SDS011;26663;59.302;18.082;2023-03-19T08:39:33;18.33;;;10.93;;
17650;SDS011;26663;59.302;18.082;2023-03-19T08:42:39;19.67;;;11.07;;
17650;SDS011;26663;59.302;18.082;2023-03-19T08:45:47;19.57;;;10.37;;
17650;SDS011;26663;59.302;18.082;2023-03-19T08:48:53;17.20;;;9.73;;
17650;SDS011;26663;59.302;18.082;2023-03-19T08:51:59;14.83;;;9.90;;
17650;SDS011;26663;59.302;18.082;2023-03-19T08:55:04;17.30;;;10.10;;
17650;SDS011;26663;59.302;18.082;2023-03-19T08:58:12;18.43;;;10.03;;
17650;SDS011;26663;59.302;18.082;2023-03-19T09:01:17;16.47;;;9.23;;
17650;SDS011;26663;59.302;18.082;2023-03-19T09:04:22;16.97;;;9.63;;
17650;SDS011;26663;59.302;18.082;2023-03-19T09:07:27;18.27;;;9.33;;
17650;SDS011;26663;59.302;18.082;2023-03-19T09:10:33;15.30;;;9.00;;
17650;SDS011;26663;59.302;18.082;2023-03-19T09:13:40;19.13;;;10.37;;
17650;SDS011;26663;59.302;18.082;2023-03-19T09:16:45;18.97;;;10.50;;
17650;SDS011;26663;59.302;18.082;2023-03-19T09:19:50;14.77;;;9.50;;
17650;SDS011;26663;59.302;18.082;2023-03-19T09:22:55;19.73;;;12.13;;
17650;SDS011;26663;59.302;18.082;2023-03-19T09:26:01;16.77;;;10.70;;
17650;SDS011;26663;59.302;18.082;2023-03-19T09:29:07;14.57;;;9.80;;
17650;SDS011;26663;59.302;18.082;2023-03-19T09:32:13;16.17;;;9.27;;
17650;SDS011;26663;59.302;18.082;2023-03-19T09:35:18;12.60;;;8.70;;
17650;SDS011;26663;59.302;18.082;2023-03-19T09:38:23;17.15;;;11.73;;
17650;SDS011;26663;59.302;18.082;2023-03-19T09:41:31;13.55;;;9.68;;
17650;SDS011;26663;59.302;18.082;2023-03-19T09:44:43;13.37;;;9.40;;
17650;SDS011;26663;59.302;18.082;2023-03-19T09:47:51;15.73;;;9.60;;
17650;SDS011;26663;59.302;18.082;2023-03-19T09:50:58;16.43;;;9.47;;
17650;SDS011;26663;59.302;18.082;2023-03-19T09:54:06;13.57;;;8.97;;
17650;SDS011;26663;59.302;18.082;2023-03-19T09:57:16;16.05;;;9.40;;
17650;SDS011;26663;59.302;18.082;2023-03-19T10:00:24;13.70;;;9.20;;
17650;SDS011;26663;59.302;18.082;2023-03-19T10:03:37;12.50;;;9.18;;
17650;SDS011;26663;59.302;18.082;2023-03-19T10:06:48;13.77;;;9.37;;
17650;SDS011;26663;59.302;18.082;2023-03-19T10:09:58;14.87;;;10.23;;
17650;SDS011;26663;59.302;18.082;2023-03-19T10:13:17;14.70;;;9.67;;
17650;SDS011;26663;59.302;18.082;2023-03-19T10:16:30;16.60;;;9.60;;
17650;SDS011;26663;59.302;18.082;2023-03-19T10:19:36;12.60;;;8.97;;
17650;SDS011;26663;59.302;18.082;2023-03-19T10:22:46;12.38;;;8.75;;
17650;SDS011;26663;59.302;18.082;2023-03-19T10:25:56;10.18;;;8.15;;
17650;SDS011;26663;59.302;18.082;2023-03-19T10:29:03;11.18;;;8.10;;
17650;SDS011;26663;59.302;18.082;2023-03-19T10:32:14;8.80;;;7.78;;
17650;SDS011;26663;59.302;18.082;2023-03-19T10:35:22;9.05;;;7.65;;
17650;SDS011;26663;59.302;18.082;2023-03-19T10:38:30;10.18;;;8.73;;
17650;SDS011;26663;59.302;18.082;2023-03-19T10:41:41;10.90;;;8.55;;
17650;SDS011;26663;59.302;18.082;2023-03-19T10:44:54;11.15;;;8.95;;
17650;SDS011;26663;59.302;18.082;2023-03-19T10:48:04;11.55;;;8.15;;
17650;SDS011;26663;59.302;18.082;2023-03-19T10:51:10;9.55;;;8.27;;
17650;SDS011;26663;59.302;18.082;2023-03-19T10:54:18;11.05;;;8.57;;
17650;SDS011;26663;59.302;18.082;2023-03-19T10:57:25;13.07;;;8.93;;
17650;SDS011;26663;59.302;18.082;2023-03-19T11:00:33;10.27;;;8.50;;
17650;SDS011;26663;59.302;18.082;2023-03-19T11:03:48;10.35;;;8.02;;
17650;SDS011;26663;59.302;18.082;2023-03-19T11:06:54;8.98;;;7.78;;
17650;SDS011;26663;59.302;18.082;2023-03-19T11:10:11;11.40;;;8.48;;
17650;SDS011;26663;59.302;18.082;2023-03-19T11:13:19;11.20;;;8.32;;
17650;SDS011;26663;59.302;18.082;2023-03-19T11:16:27;10.88;;;8.52;;
17650;SDS011;26663;59.302;18.082;2023-03-19T11:19:38;10.50;;;8.38;;
17650;SDS011;26663;59.302;18.082;2023-03-19T11:22:44;9.82;;;8.07;;
17650;SDS011;26663;59.302;18.082;2023-03-19T11:25:50;9.27;;;7.50;;
17650;SDS011;26663;59.302;18.082;2023-03-19T11:29:01;9.93;;;7.60;;
17650;SDS011;26663;59.302;18.082;2023-03-19T11:32:11;9.32;;;7.15;;
17650;SDS011;26663;59.302;18.082;2023-03-19T11:35:36;10.25;;;8.18;;
17650;SDS011;26663;59.302;18.082;2023-03-19T11:38:48;9.27;;;7.93;;
17650;SDS011;26663;59.302;18.082;2023-03-19T11:42:07;9.25;;;7.68;;
17650;SDS011;26663;59.302;18.082;2023-03-19T11:45:28;11.77;;;7.93;;
17650;SDS011;26663;59.302;18.082;2023-03-19T11:48:40;11.77;;;8.68;;
17650;SDS011;26663;59.302;18.082;2023-03-19T11:52:12;8.32;;;7.53;;
17650;SDS011;26663;59.302;18.082;2023-03-19T11:55:21;7.88;;;7.07;;
17650;SDS011;26663;59.302;18.082;2023-03-19T11:58:40;8.65;;;7.70;;
17650;SDS011;26663;59.302;18.082;2023-03-19T12:01:57;7.90;;;7.10;;
17650;SDS011;26663;59.302;18.082;2023-03-19T12:05:23;7.00;;;6.35;;
17650;SDS011;26663;59.302;18.082;2023-03-19T12:08:35;10.52;;;6.88;;
17650;SDS011;26663;59.302;18.082;2023-03-19T12:11:46;9.30;;;6.90;;
17650;SDS011;26663;59.302;18.082;2023-03-19T12:15:00;8.73;;;7.15;;
17650;SDS011;26663;59.302;18.082;2023-03-19T12:18:16;7.65;;;6.60;;
17650;SDS011;26663;59.302;18.082;2023-03-19T12:21:27;8.25;;;7.28;;
17650;SDS011;26663;59.302;18.082;2023-03-19T12:24:39;9.13;;;7.72;;
17650;SDS011;26663;59.302;18.082;2023-03-19T12:27:53;9.68;;;7.65;;
17650;SDS011;26663;59.302;18.082;2023-03-19T12:34:38;10.52;;;7.63;;
17650;SDS011;26663;59.302;18.082;2023-03-19T12:37:55;8.90;;;8.00;;
17650;SDS011;26663;59.302;18.082;2023-03-19T12:41:05;8.48;;;7.68;;
17650;SDS011;26663;59.302;18.082;2023-03-19T12:44:13;8.73;;;7.93;;
17650;SDS011;26663;59.302;18.082;2023-03-19T12:47:23;9.25;;;8.02;;
17650;SDS011;26663;59.302;18.082;2023-03-19T12:50:32;7.88;;;7.15;;
17650;SDS011;26663;59.302;18.082;2023-03-19T12:53:42;8.02;;;7.30;;
17650;SDS011;26663;59.302;18.082;2023-03-19T12:56:53;7.90;;;7.13;;
17650;SDS011;26663;59.302;18.082;2023-03-19T13:00:04;6.80;;;6.28;;
17650;SDS011;26663;59.302;18.082;2023-03-19T13:03:15;7.45;;;6.85;;
17650;SDS011;26663;59.302;18.082;2023-03-19T13:06:23;7.55;;;6.95;;
17650;SDS011;26663;59.302;18.082;2023-03-19T13:09:32;7.75;;;7.05;;
17650;SDS011;26663;59.302;18.082;2023-03-19T13:12:43;7.55;;;6.88;;
17650;SDS011;26663;59.302;18.082;2023-03-19T13:15:49;6.82;;;6.32;;
17650;SDS011;26663;59.302;18.082;2023-03-19T13:18:59;8.38;;;7.07;;
17650;SDS011;26663;59.302;18.082;2023-03-19T13:22:11;9.57;;;6.82;;
17650;SDS011;26663;59.302;18.082;2023-03-19T13:25:22;11.85;;;6.97;;
17650;SDS011;26663;59.302;18.082;2023-03-19T13:28:31;8.45;;;7.60;;
17650;SDS011;26663;59.302;18.082;2023-03-19T13:31:38;8.65;;;7.45;;
17650;SDS011;26663;59.302;18.082;2023-03-19T13:34:44;8.90;;;7.97;;
17650;SDS011;26663;59.302;18.082;2023-03-19T13:37:50;8.25;;;7.45;;
17650;SDS011;26663;59.302;18.082;2023-03-19T13:40:59;8.95;;;7.65;;
17650;SDS011;26663;59.302;18.082;2023-03-19T13:44:19;7.47;;;6.80;;
17650;SDS011;26663;59.302;18.082;2023-03-19T13:47:36;7.10;;;6.60;;
17650;SDS011;26663;59.302;18.082;2023-03-19T13:50:49;6.90;;;6.30;;
17650;SDS011;26663;59.302;18.082;2023-03-19T13:54:03;6.03;;;5.55;;
17650;SDS011;26663;59.302;18.082;2023-03-19T13:57:20;6.32;;;5.82;;
17650;SDS011;26663;59.302;18.082;2023-03-19T14:04:03;5.93;;;5.53;;
17650;SDS011;26663;59.302;18.082;2023-03-19T14:07:09;6.20;;;5.72;;
17650;SDS011;26663;59.302;18.082;2023-03-19T14:10:16;5.60;;;5.30;;
17650;SDS011;26663;59.302;18.082;2023-03-19T14:13:28;6.03;;;5.63;;
17650;SDS011;26663;59.302;18.082;2023-03-19T14:16:40;5.63;;;5.28;;
17650;SDS011;26663;59.302;18.082;2023-03-19T14:19:48;6.10;;;5.65;;
17650;SDS011;26663;59.302;18.082;2023-03-19T14:22:56;5.55;;;5.15;;
17650;SDS011;26663;59.302;18.082;2023-03-19T14:26:18;5.78;;;5.13;;
17650;SDS011;26663;59.302;18.082;2023-03-19T14:29:26;5.75;;;5.30;;
17650;SDS011;26663;59.302;18.082;2023-03-19T14:32:35;6.28;;;5.78;;
17650;SDS011;26663;59.302;18.082;2023-03-19T14:35:44;5.93;;;5.25;;
17650;SDS011;26663;59.302;18.082;2023-03-19T14:38:50;6.30;;;5.88;;
17650;SDS011;26663;59.302;18.082;2023-03-19T14:41:58;6.13;;;5.57;;
17650;SDS011;26663;59.302;18.082;2023-03-19T14:45:19;6.40;;;5.85;;
17650;SDS011;26663;59.302;18.082;2023-03-19T14:52:31;6.93;;;6.22;;
17650;SDS011;26663;59.302;18.082;2023-03-19T14:55:41;6.80;;;6.30;;
17650;SDS011;26663;59.302;18.082;2023-03-19T14:58:47;6.50;;;5.97;;
17650;SDS011;26663;59.302;18.082;2023-03-19T15:01:53;6.10;;;5.70;;
17650;SDS011;26663;59.302;18.082;2023-03-19T15:04:59;6.50;;;6.00;;
17650;SDS011;26663;59.302;18.082;2023-03-19T15:08:09;6.28;;;5.88;;
17650;SDS011;26663;59.302;18.082;2023-03-19T15:11:20;5.70;;;5.40;;
17650;SDS011;26663;59.302;18.082;2023-03-19T15:14:45;6.97;;;6.30;;
17650;SDS011;26663;59.302;18.082;2023-03-19T15:17:59;6.65;;;6.15;;
17650;SDS011;26663;59.302;18.082;2023-03-19T15:21:07;6.95;;;6.45;;
17650;SDS011;26663;59.302;18.082;2023-03-19T15:24:13;6.80;;;6.30;;
17650;SDS011;26663;59.302;18.082;2023-03-19T15:27:20;7.10;;;6.50;;
17650;SDS011;26663;59.302;18.082;2023-03-19T15:30:26;7.10;;;6.50;;
17650;SDS011;26663;59.302;18.082;2023-03-19T15:33:32;8.07;;;7.38;;
17650;SDS011;26663;59.302;18.082;2023-03-19T15:36:46;9.43;;;7.60;;
17650;SDS011;26663;59.302;18.082;2023-03-19T15:39:54;9.18;;;8.27;;
17650;SDS011;26663;59.302;18.082;2023-03-19T15:42:59;9.95;;;8.45;;
17650;SDS011;26663;59.302;18.082;2023-03-19T15:46:05;8.85;;;8.07;;
17650;SDS011;26663;59.302;18.082;2023-03-19T15:49:14;8.30;;;7.50;;
17650;SDS011;26663;59.302;18.082;2023-03-19T15:52:23;10.75;;;8.07;;
17650;SDS011;26663;59.302;18.082;2023-03-19T15:55:30;9.93;;;8.68;;
17650;SDS011;26663;59.302;18.082;2023-03-19T15:58:41;8.40;;;7.60;;
17650;SDS011;26663;59.302;18.082;2023-03-19T16:01:48;9.63;;;8.35;;
17650;SDS011;26663;59.302;18.082;2023-03-19T16:04:54;9.10;;;8.15;;
17650;SDS011;26663;59.302;18.082;2023-03-19T16:08:22;8.52;;;7.72;;
17650;SDS011;26663;59.302;18.082;2023-03-19T16:11:29;8.27;;;7.47;;
17650;SDS011;26663;59.302;18.082;2023-03-19T16:14:38;9.00;;;8.07;;
17650;SDS011;26663;59.302;18.082;2023-03-19T16:17:47;8.50;;;7.70;;
17650;SDS011;26663;59.302;18.082;2023-03-19T16:20:57;8.38;;;7.57;;
17650;SDS011;26663;59.302;18.082;2023-03-19T16:24:13;9.32;;;8.43;;
17650;SDS011;26663;59.302;18.082;2023-03-19T16:27:29;10.07;;;8.07;;
17650;SDS011;26663;59.302;18.082;2023-03-19T16:30:40;9.80;;;8.50;;
17650;SDS011;26663;59.302;18.082;2023-03-19T16:33:49;9.85;;;7.80;;
17650;SDS011;26663;59.302;18.082;2023-03-19T16:36:55;8.93;;;7.97;;
17650;SDS011;26663;59.302;18.082;2023-03-19T16:40:07;10.70;;;8.50;;
17650;SDS011;26663;59.302;18.082;2023-03-19T16:43:44;11.30;;;8.03;;
17650;SDS011;26663;59.302;18.082;2023-03-19T16:46:49;11.03;;;8.53;;
17650;SDS011;26663;59.302;18.082;2023-03-19T16:49:54;10.87;;;8.83;;
17650;SDS011;26663;59.302;18.082;2023-03-19T16:53:00;14.50;;;8.93;;
17650;SDS011;26663;59.302;18.082;2023-03-19T16:56:10;10.32;;;8.07;;
17650;SDS011;26663;59.302;18.082;2023-03-19T16:59:18;13.47;;;9.37;;
17650;SDS011;26663;59.302;18.082;2023-03-19T17:02:26;13.87;;;9.37;;
17650;SDS011;26663;59.302;18.082;2023-03-19T17:05:31;13.37;;;9.20;;
17650;SDS011;26663;59.302;18.082;2023-03-19T17:08:38;11.90;;;8.57;;
17650;SDS011;26663;59.302;18.082;2023-03-19T17:11:45;13.90;;;9.33;;
17650;SDS011;26663;59.302;18.082;2023-03-19T17:14:50;12.75;;;8.68;;
17650;SDS011;26663;59.302;18.082;2023-03-19T17:17:56;10.63;;;7.70;;
17650;SDS011;26663;59.302;18.082;2023-03-19T17:21:03;11.68;;;7.25;;
17650;SDS011;26663;59.302;18.082;2023-03-19T17:24:15;10.45;;;7.28;;
17650;SDS011;26663;59.302;18.082;2023-03-19T17:27:26;10.27;;;7.78;;
17650;SDS011;26663;59.302;18.082;2023-03-19T17:30:35;11.30;;;8.20;;
17650;SDS011;26663;59.302;18.082;2023-03-19T17:33:42;17.07;;;8.80;;
17650;SDS011;26663;59.302;18.082;2023-03-19T17:36:48;11.40;;;8.50;;
17650;SDS011;26663;59.302;18.082;2023-03-19T17:39:54;12.02;;;9.20;;
17650;SDS011;26663;59.302;18.082;2023-03-19T17:43:01;11.80;;;9.03;;
17650;SDS011;26663;59.302;18.082;2023-03-19T17:46:10;14.67;;;8.43;;
17650;SDS011;26663;59.302;18.082;2023-03-19T17:49:19;12.70;;;8.80;;
17650;SDS011;26663;59.302;18.082;2023-03-19T17:52:26;12.80;;;9.57;;
17650;SDS011;26663;59.302;18.082;2023-03-19T17:55:32;15.27;;;9.33;;
17650;SDS011;26663;59.302;18.082;2023-03-19T17:58:38;13.45;;;8.90;;
17650;SDS011;26663;59.302;18.082;2023-03-19T18:01:43;15.50;;;9.40;;
17650;SDS011;26663;59.302;18.082;2023-03-19T18:04:50;12.43;;;8.93;;
17650;SDS011;26663;59.302;18.082;2023-03-19T18:07:55;12.30;;;9.20;;
17650;SDS011;26663;59.302;18.082;2023-03-19T18:11:00;12.98;;;8.63;;
17650;SDS011;26663;59.302;18.082;2023-03-19T18:14:07;15.38;;;8.93;;
17650;SDS011;26663;59.302;18.082;2023-03-19T18:17:13;12.43;;;8.80;;
17650;SDS011;26663;59.302;18.082;2023-03-19T18:20:20;14.63;;;9.20;;
17650;SDS011;26663;59.302;18.082;2023-03-19T18:23:27;11.57;;;8.43;;
17650;SDS011;26663;59.302;18.082;2023-03-19T18:26:32;11.10;;;8.00;;
17650;SDS011;26663;59.302;18.082;2023-03-19T18:29:39;9.47;;;7.30;;
17650;SDS011;26663;59.302;18.082;2023-03-19T18:32:44;6.23;;;5.70;;
17650;SDS011;26663;59.302;18.082;2023-03-19T18:35:50;5.43;;;5.03;;